Las Americas, República Dominicana

10:21 PM AST en Enero 25, 2015 (GMT -0400)
Las Americas International | Change Station
CLOSE
Current Station
Aeropuerto
Location: Las Americas,
Altura: 59 ft
Estaciones meteorológicas cercanas

Alt 59 ft 18.43 °N, 69.67 °W | Updated 21 minutes ago

Scattered Clouds
Nubes dispersas
75 ° F
Sensación térmica 75 ° F
N
5
Viento Variable Viento desde ENE

Hoy
Alta -- | Baja -- ° F
--% Posibilidad de precipitaciones
Ayer
Alta -- | Baja -- ° F
Precip. -- pul
7:13 AM 6:28 PM
Creciente, 38% visible
Presión 30.01 pul
Visibilidad 6.2 Millas
Nubes Baja 1800 ft
Nubes dispersas 8000 ft
Punto de rocío 72 ° F
Humedad 89%
Precipitaciones 0.00 pul
Espesor de la nieve No disponible.
UV 0 de una escala de 12
Polen No disponible.
Calidad del aire No disponible.
Flu Activity No disponible.
METAR MDSD 260200Z 06004KT 9999 FEW018 SCT080 24/22 Q1016

More Conditions Fewer Conditions

Presión 30.01 pul
Visibilidad 6.2 Millas
Nubes Baja 1800 ft
Nubes dispersas 8000 ft
Punto de rocío 72 ° F
Humedad 89%
Precipitaciones 0.00 pul
Espesor de la nieve No disponible.
UV 0 de una escala de 12
Polen No disponible.
Calidad del aire No disponible.
Flu Activity No disponible.
METAR MDSD 260200Z 06004KT 9999 FEW018 SCT080 24/22 Q1016

More Conditions Fewer Conditions

10-Day Weather Forecast

Almanac

Astronomía

Jan. 25, 2015 Salida Puesta
Hora real
Crepúsculo civil
Crepúsculo náutico
Crepúsculo astronómico
Luna
Horas de luz
Horas de luz
Tomorrow will be .
, % of the Moon is Illuminated

Extremos de hoy

Máximos del país Bajas del país

Community

WunderPhotos

Upload Photos

1,790,069 ¡fotos cargadas!

WunderBlogs® & News

Nearby

Calidad del aire

  Calidad del aire Índice AQ Contaminante
Not available.

Grosos de nieve

Estación Profundido Altura

Actividad de terremotos

Ciudad Distance Mag. Tiempo y dato
Magnitud mínima muestra es 2,5.

Temperaturas de aguas costeras

Lugar Temperatura

Estaciones meteorológicas cercanas